sensor_id;sensor_type;location;lat;lon;timestamp;temperature;humidity
48328;DHT22;34136;51.022;7.082;2023-09-30T00:02:21;14.20;99.90
48328;DHT22;34136;51.022;7.082;2023-09-30T00:05:08;14.00;1.40
48328;DHT22;34136;51.022;7.082;2023-09-30T00:07:54;13.60;1.00
48328;DHT22;34136;51.022;7.082;2023-09-30T00:10:40;13.50;1.00
48328;DHT22;34136;51.022;7.082;2023-09-30T00:13:26;13.60;1.00
48328;DHT22;34136;51.022;7.082;2023-09-30T00:16:12;13.30;1.00
48328;DHT22;34136;51.022;7.082;2023-09-30T00:18:58;13.30;1.00
48328;DHT22;34136;51.022;7.082;2023-09-30T00:21:44;13.40;1.00
48328;DHT22;34136;51.022;7.082;2023-09-30T00:24:30;13.50;1.00
48328;DHT22;34136;51.022;7.082;2023-09-30T00:27:16;13.60;1.00
48328;DHT22;34136;51.022;7.082;2023-09-30T00:30:03;13.60;1.00
48328;DHT22;34136;51.022;7.082;2023-09-30T00:32:49;13.50;1.00
48328;DHT22;34136;51.022;7.082;2023-09-30T00:35:35;13.50;1.00
48328;DHT22;34136;51.022;7.082;2023-09-30T00:38:21;13.50;1.00
48328;DHT22;34136;51.022;7.082;2023-09-30T00:41:08;13.50;1.00
48328;DHT22;34136;51.022;7.082;2023-09-30T00:43:54;13.50;1.00
48328;DHT22;34136;51.022;7.082;2023-09-30T00:46:40;13.60;1.00
48328;DHT22;34136;51.022;7.082;2023-09-30T00:49:28;13.50;1.00
48328;DHT22;34136;51.022;7.082;2023-09-30T00:52:15;13.40;1.00
48328;DHT22;34136;51.022;7.082;2023-09-30T00:55:02;13.20;1.00
48328;DHT22;34136;51.022;7.082;2023-09-30T00:57:49;13.20;1.00
48328;DHT22;34136;51.022;7.082;2023-09-30T01:00:36;13.20;1.00
48328;DHT22;34136;51.022;7.082;2023-09-30T01:03:23;13.20;1.00
48328;DHT22;34136;51.022;7.082;2023-09-30T01:06:09;13.10;1.00
48328;DHT22;34136;51.022;7.082;2023-09-30T01:08:57;13.10;1.00
48328;DHT22;34136;51.022;7.082;2023-09-30T01:11:43;13.10;1.00
48328;DHT22;34136;51.022;7.082;2023-09-30T01:14:34;13.20;1.00
48328;DHT22;34136;51.022;7.082;2023-09-30T01:17:20;13.20;1.00
48328;DHT22;34136;51.022;7.082;2023-09-30T01:20:08;13.30;1.00
48328;DHT22;34136;51.022;7.082;2023-09-30T01:22:57;13.30;1.00
48328;DHT22;34136;51.022;7.082;2023-09-30T01:25:43;13.20;1.00
48328;DHT22;34136;51.022;7.082;2023-09-30T01:28:29;13.20;1.00
48328;DHT22;34136;51.022;7.082;2023-09-30T01:31:15;13.20;1.00
48328;DHT22;34136;51.022;7.082;2023-09-30T01:34:02;13.10;1.00
48328;DHT22;34136;51.022;7.082;2023-09-30T01:36:48;12.90;1.00
48328;DHT22;34136;51.022;7.082;2023-09-30T01:39:36;13.00;1.00
48328;DHT22;34136;51.022;7.082;2023-09-30T01:42:22;13.00;1.00
48328;DHT22;34136;51.022;7.082;2023-09-30T01:45:08;13.00;1.00
48328;DHT22;34136;51.022;7.082;2023-09-30T01:47:54;13.00;1.00
48328;DHT22;34136;51.022;7.082;2023-09-30T01:50:41;13.00;1.00
48328;DHT22;34136;51.022;7.082;2023-09-30T01:53:27;13.10;1.00
48328;DHT22;34136;51.022;7.082;2023-09-30T01:56:14;12.90;1.00
48328;DHT22;34136;51.022;7.082;2023-09-30T01:59:00;12.80;1.00
48328;DHT22;34136;51.022;7.082;2023-09-30T02:01:46;12.80;1.00
48328;DHT22;34136;51.022;7.082;2023-09-30T02:04:32;12.80;1.00
48328;DHT22;34136;51.022;7.082;2023-09-30T02:07:18;12.70;1.00
48328;DHT22;34136;51.022;7.082;2023-09-30T02:10:05;12.60;1.00
48328;DHT22;34136;51.022;7.082;2023-09-30T02:15:33;12.70;1.00
48328;DHT22;34136;51.022;7.082;2023-09-30T02:18:19;12.60;1.00
48328;DHT22;34136;51.022;7.082;2023-09-30T02:21:06;12.70;1.00
48328;DHT22;34136;51.022;7.082;2023-09-30T02:23:52;12.60;1.00
48328;DHT22;34136;51.022;7.082;2023-09-30T02:26:38;12.60;1.00
48328;DHT22;34136;51.022;7.082;2023-09-30T02:29:24;12.70;1.00
48328;DHT22;34136;51.022;7.082;2023-09-30T02:32:10;12.70;1.00
48328;DHT22;34136;51.022;7.082;2023-09-30T02:34:57;12.80;1.00
48328;DHT22;34136;51.022;7.082;2023-09-30T02:37:43;12.80;1.00
48328;DHT22;34136;51.022;7.082;2023-09-30T02:40:38;12.70;1.00
48328;DHT22;34136;51.022;7.082;2023-09-30T02:43:24;12.70;1.00
48328;DHT22;34136;51.022;7.082;2023-09-30T02:46:11;12.70;1.00
48328;DHT22;34136;51.022;7.082;2023-09-30T02:48:57;12.60;1.00
48328;DHT22;34136;51.022;7.082;2023-09-30T02:51:43;12.60;1.00
48328;DHT22;34136;51.022;7.082;2023-09-30T02:54:31;12.50;1.00
48328;DHT22;34136;51.022;7.082;2023-09-30T02:57:17;12.50;1.00
48328;DHT22;34136;51.022;7.082;2023-09-30T03:00:05;12.50;1.00
48328;DHT22;34136;51.022;7.082;2023-09-30T03:02:56;12.50;1.00
48328;DHT22;34136;51.022;7.082;2023-09-30T03:05:42;12.30;1.00
48328;DHT22;34136;51.022;7.082;2023-09-30T03:08:28;12.30;1.00
48328;DHT22;34136;51.022;7.082;2023-09-30T03:11:14;12.30;1.00
48328;DHT22;34136;51.022;7.082;2023-09-30T03:14:01;12.30;1.00
48328;DHT22;34136;51.022;7.082;2023-09-30T03:16:47;12.30;1.00
48328;DHT22;34136;51.022;7.082;2023-09-30T03:19:33;12.20;1.00
48328;DHT22;34136;51.022;7.082;2023-09-30T03:22:19;12.10;1.00
48328;DHT22;34136;51.022;7.082;2023-09-30T03:25:07;12.00;1.00
48328;DHT22;34136;51.022;7.082;2023-09-30T03:27:53;12.00;1.00
48328;DHT22;34136;51.022;7.082;2023-09-30T03:30:40;11.90;1.00
48328;DHT22;34136;51.022;7.082;2023-09-30T03:33:26;12.00;1.00
48328;DHT22;34136;51.022;7.082;2023-09-30T03:36:13;12.10;1.00
48328;DHT22;34136;51.022;7.082;2023-09-30T03:38:59;12.10;1.00
48328;DHT22;34136;51.022;7.082;2023-09-30T03:41:45;12.10;1.00
48328;DHT22;34136;51.022;7.082;2023-09-30T03:44:31;11.90;1.00
48328;DHT22;34136;51.022;7.082;2023-09-30T03:47:18;11.80;1.00
48328;DHT22;34136;51.022;7.082;2023-09-30T03:50:05;11.80;1.00
48328;DHT22;34136;51.022;7.082;2023-09-30T03:52:51;11.80;1.00
48328;DHT22;34136;51.022;7.082;2023-09-30T03:55:37;11.70;1.00
48328;DHT22;34136;51.022;7.082;2023-09-30T03:58:24;11.70;1.00
48328;DHT22;34136;51.022;7.082;2023-09-30T04:01:10;11.60;1.00
48328;DHT22;34136;51.022;7.082;2023-09-30T04:03:56;11.40;1.00
48328;DHT22;34136;51.022;7.082;2023-09-30T04:06:42;11.50;1.00
48328;DHT22;34136;51.022;7.082;2023-09-30T04:09:28;11.60;1.00
48328;DHT22;34136;51.022;7.082;2023-09-30T04:12:15;11.60;1.00
48328;DHT22;34136;51.022;7.082;2023-09-30T04:15:01;11.60;1.00
48328;DHT22;34136;51.022;7.082;2023-09-30T04:17:48;11.50;1.00
48328;DHT22;34136;51.022;7.082;2023-09-30T04:20:35;11.50;1.00
48328;DHT22;34136;51.022;7.082;2023-09-30T04:23:21;11.50;1.00
48328;DHT22;34136;51.022;7.082;2023-09-30T04:26:07;11.50;1.00
48328;DHT22;34136;51.022;7.082;2023-09-30T04:28:54;11.40;1.00
48328;DHT22;34136;51.022;7.082;2023-09-30T04:31:40;11.40;1.00
48328;DHT22;34136;51.022;7.082;2023-09-30T04:34:26;11.30;1.00
48328;DHT22;34136;51.022;7.082;2023-09-30T04:37:13;11.30;1.00
48328;DHT22;34136;51.022;7.082;2023-09-30T04:40:00;11.30;1.00
48328;DHT22;34136;51.022;7.082;2023-09-30T04:42:46;11.40;1.00
48328;DHT22;34136;51.022;7.082;2023-09-30T04:45:32;11.40;1.00
48328;DHT22;34136;51.022;7.082;2023-09-30T04:48:18;11.30;1.00
48328;DHT22;34136;51.022;7.082;2023-09-30T04:51:08;11.30;1.00
48328;DHT22;34136;51.022;7.082;2023-09-30T04:53:54;11.20;1.00
48328;DHT22;34136;51.022;7.082;2023-09-30T04:56:40;11.20;1.00
48328;DHT22;34136;51.022;7.082;2023-09-30T04:59:26;11.30;1.00
48328;DHT22;34136;51.022;7.082;2023-09-30T05:02:13;11.30;1.00
48328;DHT22;34136;51.022;7.082;2023-09-30T05:04:59;11.30;1.00
48328;DHT22;34136;51.022;7.082;2023-09-30T05:07:45;11.30;1.00
48328;DHT22;34136;51.022;7.082;2023-09-30T05:10:31;11.30;1.00
48328;DHT22;34136;51.022;7.082;2023-09-30T05:13:17;11.30;1.00
48328;DHT22;34136;51.022;7.082;2023-09-30T05:16:03;11.30;1.00
48328;DHT22;34136;51.022;7.082;2023-09-30T05:18:49;11.30;1.00
48328;DHT22;34136;51.022;7.082;2023-09-30T05:21:35;11.30;1.00
48328;DHT22;34136;51.022;7.082;2023-09-30T05:24:21;11.20;1.00
48328;DHT22;34136;51.022;7.082;2023-09-30T05:27:07;11.10;1.00
48328;DHT22;34136;51.022;7.082;2023-09-30T05:29:54;11.00;1.00
48328;DHT22;34136;51.022;7.082;2023-09-30T05:32:40;11.00;1.00
48328;DHT22;34136;51.022;7.082;2023-09-30T05:35:26;11.00;1.00
48328;DHT22;34136;51.022;7.082;2023-09-30T05:38:12;11.10;1.00
48328;DHT22;34136;51.022;7.082;2023-09-30T05:40:59;11.10;1.00
48328;DHT22;34136;51.022;7.082;2023-09-30T05:43:45;11.10;1.00
48328;DHT22;34136;51.022;7.082;2023-09-30T05:46:31;11.20;1.00
48328;DHT22;34136;51.022;7.082;2023-09-30T05:49:17;11.20;1.00
48328;DHT22;34136;51.022;7.082;2023-09-30T05:52:03;11.20;1.00
48328;DHT22;34136;51.022;7.082;2023-09-30T05:54:49;11.20;1.00
48328;DHT22;34136;51.022;7.082;2023-09-30T05:57:36;11.10;1.00
48328;DHT22;34136;51.022;7.082;2023-09-30T06:00:22;11.20;1.00
48328;DHT22;34136;51.022;7.082;2023-09-30T06:03:09;11.20;1.00
48328;DHT22;34136;51.022;7.082;2023-09-30T06:05:55;11.30;1.00
48328;DHT22;34136;51.022;7.082;2023-09-30T06:08:42;11.40;1.00
48328;DHT22;34136;51.022;7.082;2023-09-30T06:11:29;11.40;1.00
48328;DHT22;34136;51.022;7.082;2023-09-30T06:14:15;11.50;1.00
48328;DHT22;34136;51.022;7.082;2023-09-30T06:17:01;11.60;1.00
48328;DHT22;34136;51.022;7.082;2023-09-30T06:19:47;11.70;1.00
48328;DHT22;34136;51.022;7.082;2023-09-30T06:22:33;11.80;1.00
48328;DHT22;34136;51.022;7.082;2023-09-30T06:25:20;11.90;1.00
48328;DHT22;34136;51.022;7.082;2023-09-30T06:28:06;11.90;1.00
48328;DHT22;34136;51.022;7.082;2023-09-30T06:30:52;11.90;1.00
48328;DHT22;34136;51.022;7.082;2023-09-30T06:33:39;11.90;1.00
48328;DHT22;34136;51.022;7.082;2023-09-30T06:36:25;11.90;1.00
48328;DHT22;34136;51.022;7.082;2023-09-30T06:39:11;12.00;1.00
48328;DHT22;34136;51.022;7.082;2023-09-30T06:41:57;12.10;1.00
48328;DHT22;34136;51.022;7.082;2023-09-30T06:44:43;12.20;1.00
48328;DHT22;34136;51.022;7.082;2023-09-30T06:47:29;12.20;1.00
48328;DHT22;34136;51.022;7.082;2023-09-30T06:50:15;12.30;1.00
48328;DHT22;34136;51.022;7.082;2023-09-30T06:53:01;12.40;1.00
48328;DHT22;34136;51.022;7.082;2023-09-30T06:55:48;12.50;1.00
48328;DHT22;34136;51.022;7.082;2023-09-30T06:58:34;12.50;1.00
48328;DHT22;34136;51.022;7.082;2023-09-30T07:01:20;12.50;1.00
48328;DHT22;34136;51.022;7.082;2023-09-30T07:04:06;12.60;1.00
48328;DHT22;34136;51.022;7.082;2023-09-30T07:06:53;12.60;1.00
48328;DHT22;34136;51.022;7.082;2023-09-30T07:09:39;12.70;1.00
48328;DHT22;34136;51.022;7.082;2023-09-30T07:12:25;12.90;1.00
48328;DHT22;34136;51.022;7.082;2023-09-30T07:15:12;13.00;1.00
48328;DHT22;34136;51.022;7.082;2023-09-30T07:17:58;13.10;1.00
48328;DHT22;34136;51.022;7.082;2023-09-30T07:20:44;13.30;1.00
48328;DHT22;34136;51.022;7.082;2023-09-30T07:23:30;13.50;1.00
48328;DHT22;34136;51.022;7.082;2023-09-30T07:26:16;13.40;1.00
48328;DHT22;34136;51.022;7.082;2023-09-30T07:29:02;13.50;1.00
48328;DHT22;34136;51.022;7.082;2023-09-30T07:31:48;13.40;1.00
48328;DHT22;34136;51.022;7.082;2023-09-30T07:34:35;13.50;1.00
48328;DHT22;34136;51.022;7.082;2023-09-30T07:37:21;13.60;1.00
48328;DHT22;34136;51.022;7.082;2023-09-30T07:40:08;13.60;1.00
48328;DHT22;34136;51.022;7.082;2023-09-30T07:42:54;13.60;1.00
48328;DHT22;34136;51.022;7.082;2023-09-30T07:45:41;13.70;1.00
48328;DHT22;34136;51.022;7.082;2023-09-30T07:48:27;13.90;1.00
48328;DHT22;34136;51.022;7.082;2023-09-30T07:51:14;14.10;1.00
48328;DHT22;34136;51.022;7.082;2023-09-30T07:54:00;14.30;1.00
48328;DHT22;34136;51.022;7.082;2023-09-30T07:56:46;14.60;1.00
48328;DHT22;34136;51.022;7.082;2023-09-30T07:59:32;14.80;1.00
48328;DHT22;34136;51.022;7.082;2023-09-30T08:02:18;14.90;1.00
48328;DHT22;34136;51.022;7.082;2023-09-30T08:05:06;15.20;1.00
48328;DHT22;34136;51.022;7.082;2023-09-30T08:07:52;15.40;1.00
48328;DHT22;34136;51.022;7.082;2023-09-30T08:10:42;15.40;1.40
48328;DHT22;34136;51.022;7.082;2023-09-30T08:13:32;15.60;99.90
48328;DHT22;34136;51.022;7.082;2023-09-30T08:16:19;15.70;1.40
48328;DHT22;34136;51.022;7.082;2023-09-30T08:19:05;15.90;99.90
48328;DHT22;34136;51.022;7.082;2023-09-30T08:21:51;16.00;99.90
48328;DHT22;34136;51.022;7.082;2023-09-30T08:24:37;16.10;99.90
48328;DHT22;34136;51.022;7.082;2023-09-30T08:27:24;16.20;99.90
48328;DHT22;34136;51.022;7.082;2023-09-30T08:30:10;16.20;99.90
48328;DHT22;34136;51.022;7.082;2023-09-30T08:32:56;16.20;99.90
48328;DHT22;34136;51.022;7.082;2023-09-30T08:35:43;16.30;99.90
48328;DHT22;34136;51.022;7.082;2023-09-30T08:38:29;16.40;99.90
48328;DHT22;34136;51.022;7.082;2023-09-30T08:41:31;16.50;99.90
48328;DHT22;34136;51.022;7.082;2023-09-30T08:44:17;16.50;99.90
48328;DHT22;34136;51.022;7.082;2023-09-30T08:47:05;16.80;99.90
48328;DHT22;34136;51.022;7.082;2023-09-30T08:49:53;16.80;99.90
48328;DHT22;34136;51.022;7.082;2023-09-30T08:52:40;17.10;99.90
48328;DHT22;34136;51.022;7.082;2023-09-30T08:55:27;17.10;99.90
48328;DHT22;34136;51.022;7.082;2023-09-30T08:58:13;17.30;99.90
48328;DHT22;34136;51.022;7.082;2023-09-30T09:01:00;17.40;99.90
48328;DHT22;34136;51.022;7.082;2023-09-30T09:03:46;17.40;99.90
48328;DHT22;34136;51.022;7.082;2023-09-30T09:06:32;17.60;99.90
48328;DHT22;34136;51.022;7.082;2023-09-30T09:09:19;17.50;99.90
48328;DHT22;34136;51.022;7.082;2023-09-30T09:12:05;17.40;99.90
48328;DHT22;34136;51.022;7.082;2023-09-30T09:14:52;17.50;99.90
48328;DHT22;34136;51.022;7.082;2023-09-30T09:17:45;17.60;99.90
48328;DHT22;34136;51.022;7.082;2023-09-30T09:20:31;17.70;99.90
48328;DHT22;34136;51.022;7.082;2023-09-30T09:23:17;17.90;99.90
48328;DHT22;34136;51.022;7.082;2023-09-30T09:26:03;18.10;99.90
48328;DHT22;34136;51.022;7.082;2023-09-30T09:28:50;18.30;99.90
48328;DHT22;34136;51.022;7.082;2023-09-30T09:31:36;18.20;99.90
48328;DHT22;34136;51.022;7.082;2023-09-30T09:34:22;18.30;99.90
48328;DHT22;34136;51.022;7.082;2023-09-30T09:37:19;18.40;99.90
48328;DHT22;34136;51.022;7.082;2023-09-30T09:40:06;18.40;99.90
48328;DHT22;34136;51.022;7.082;2023-09-30T09:42:54;18.30;99.90
48328;DHT22;34136;51.022;7.082;2023-09-30T09:45:40;18.50;99.90
48328;DHT22;34136;51.022;7.082;2023-09-30T09:48:27;18.40;99.90
48328;DHT22;34136;51.022;7.082;2023-09-30T09:51:14;18.70;99.90
48328;DHT22;34136;51.022;7.082;2023-09-30T09:54:00;18.60;99.90
48328;DHT22;34136;51.022;7.082;2023-09-30T09:56:48;18.80;99.90
48328;DHT22;34136;51.022;7.082;2023-09-30T09:59:36;18.90;99.90
48328;DHT22;34136;51.022;7.082;2023-09-30T10:02:22;19.10;99.90
48328;DHT22;34136;51.022;7.082;2023-09-30T10:05:09;19.00;99.90
48328;DHT22;34136;51.022;7.082;2023-09-30T10:08:00;19.00;99.90
48328;DHT22;34136;51.022;7.082;2023-09-30T10:10:48;19.20;99.90
48328;DHT22;34136;51.022;7.082;2023-09-30T10:13:53;19.20;99.90
48328;DHT22;34136;51.022;7.082;2023-09-30T10:19:30;19.60;99.90
48328;DHT22;34136;51.022;7.082;2023-09-30T10:25:34;19.90;99.90
48328;DHT22;34136;51.022;7.082;2023-09-30T10:28:43;20.00;99.90
48328;DHT22;34136;51.022;7.082;2023-09-30T10:31:29;20.00;99.90
48328;DHT22;34136;51.022;7.082;2023-09-30T10:34:21;20.20;99.90
48328;DHT22;34136;51.022;7.082;2023-09-30T10:37:37;20.10;99.90
48328;DHT22;34136;51.022;7.082;2023-09-30T10:40:27;20.10;99.90
48328;DHT22;34136;51.022;7.082;2023-09-30T10:43:33;20.10;99.90
48328;DHT22;34136;51.022;7.082;2023-09-30T10:49:37;20.10;99.90
48328;DHT22;34136;51.022;7.082;2023-09-30T10:52:23;20.10;99.90
48328;DHT22;34136;51.022;7.082;2023-09-30T10:55:09;20.20;99.90
48328;DHT22;34136;51.022;7.082;2023-09-30T10:57:55;20.50;99.90
48328;DHT22;34136;51.022;7.082;2023-09-30T11:00:55;20.80;99.90
48328;DHT22;34136;51.022;7.082;2023-09-30T11:03:42;20.70;99.90
48328;DHT22;34136;51.022;7.082;2023-09-30T11:06:28;20.70;99.90
48328;DHT22;34136;51.022;7.082;2023-09-30T11:09:18;20.50;99.90
48328;DHT22;34136;51.022;7.082;2023-09-30T11:12:13;20.60;99.90
48328;DHT22;34136;51.022;7.082;2023-09-30T11:15:01;20.50;99.90
48328;DHT22;34136;51.022;7.082;2023-09-30T11:17:48;20.80;99.90
48328;DHT22;34136;51.022;7.082;2023-09-30T11:20:35;20.60;99.90
48328;DHT22;34136;51.022;7.082;2023-09-30T11:23:21;20.70;99.90
48328;DHT22;34136;51.022;7.082;2023-09-30T11:26:08;20.70;99.90
48328;DHT22;34136;51.022;7.082;2023-09-30T11:28:54;20.50;99.90
48328;DHT22;34136;51.022;7.082;2023-09-30T11:31:41;20.90;99.90
48328;DHT22;34136;51.022;7.082;2023-09-30T11:34:35;21.20;99.90
48328;DHT22;34136;51.022;7.082;2023-09-30T11:37:22;21.50;99.90
48328;DHT22;34136;51.022;7.082;2023-09-30T11:40:10;21.30;99.90
48328;DHT22;34136;51.022;7.082;2023-09-30T11:43:09;21.20;99.90
48328;DHT22;34136;51.022;7.082;2023-09-30T11:46:06;20.80;99.90
48328;DHT22;34136;51.022;7.082;2023-09-30T11:49:03;20.80;99.90
48328;DHT22;34136;51.022;7.082;2023-09-30T11:51:49;20.70;99.90
48328;DHT22;34136;51.022;7.082;2023-09-30T11:54:40;20.60;99.90
48328;DHT22;34136;51.022;7.082;2023-09-30T11:57:26;20.60;99.90
48328;DHT22;34136;51.022;7.082;2023-09-30T12:00:12;20.80;99.90
48328;DHT22;34136;51.022;7.082;2023-09-30T12:02:59;21.00;99.90
48328;DHT22;34136;51.022;7.082;2023-09-30T12:05:45;21.20;99.90
48328;DHT22;34136;51.022;7.082;2023-09-30T12:08:32;21.40;99.90
48328;DHT22;34136;51.022;7.082;2023-09-30T12:11:18;21.40;99.90
48328;DHT22;34136;51.022;7.082;2023-09-30T12:14:05;21.60;99.90
48328;DHT22;34136;51.022;7.082;2023-09-30T12:16:51;22.00;99.90
48328;DHT22;34136;51.022;7.082;2023-09-30T12:19:37;21.80;99.90
48328;DHT22;34136;51.022;7.082;2023-09-30T12:22:24;21.80;99.90
48328;DHT22;34136;51.022;7.082;2023-09-30T12:25:10;21.60;99.90
48328;DHT22;34136;51.022;7.082;2023-09-30T12:27:56;21.60;99.90
48328;DHT22;34136;51.022;7.082;2023-09-30T12:30:43;21.50;99.90
48328;DHT22;34136;51.022;7.082;2023-09-30T12:33:30;21.60;99.90
48328;DHT22;34136;51.022;7.082;2023-09-30T12:36:20;21.80;99.90
48328;DHT22;34136;51.022;7.082;2023-09-30T12:39:07;22.20;99.90
48328;DHT22;34136;51.022;7.082;2023-09-30T12:41:53;22.10;99.90
48328;DHT22;34136;51.022;7.082;2023-09-30T12:44:39;22.00;99.90
48328;DHT22;34136;51.022;7.082;2023-09-30T12:47:25;21.70;99.90
48328;DHT22;34136;51.022;7.082;2023-09-30T12:50:12;21.90;99.90
48328;DHT22;34136;51.022;7.082;2023-09-30T12:52:58;22.00;99.90
48328;DHT22;34136;51.022;7.082;2023-09-30T12:55:44;22.10;99.90
48328;DHT22;34136;51.022;7.082;2023-09-30T12:58:32;22.10;99.90
48328;DHT22;34136;51.022;7.082;2023-09-30T13:01:18;22.00;99.90
48328;DHT22;34136;51.022;7.082;2023-09-30T13:04:05;22.00;99.90
48328;DHT22;34136;51.022;7.082;2023-09-30T13:06:51;22.00;99.90
48328;DHT22;34136;51.022;7.082;2023-09-30T13:09:40;21.70;99.90
48328;DHT22;34136;51.022;7.082;2023-09-30T13:12:27;21.70;99.90
48328;DHT22;34136;51.022;7.082;2023-09-30T13:15:13;21.80;99.90
48328;DHT22;34136;51.022;7.082;2023-09-30T13:18:00;22.20;99.90
48328;DHT22;34136;51.022;7.082;2023-09-30T13:20:46;22.30;99.90
48328;DHT22;34136;51.022;7.082;2023-09-30T13:23:33;22.30;99.90
48328;DHT22;34136;51.022;7.082;2023-09-30T13:26:19;22.40;99.90
48328;DHT22;34136;51.022;7.082;2023-09-30T13:29:06;22.60;99.90
48328;DHT22;34136;51.022;7.082;2023-09-30T13:31:52;22.60;99.90
48328;DHT22;34136;51.022;7.082;2023-09-30T13:34:38;22.60;99.90
48328;DHT22;34136;51.022;7.082;2023-09-30T13:37:25;22.70;99.90
48328;DHT22;34136;51.022;7.082;2023-09-30T13:40:11;22.70;99.90
48328;DHT22;34136;51.022;7.082;2023-09-30T13:42:58;22.50;99.90
48328;DHT22;34136;51.022;7.082;2023-09-30T13:45:44;22.60;99.90
48328;DHT22;34136;51.022;7.082;2023-09-30T13:48:31;22.80;99.90
48328;DHT22;34136;51.022;7.082;2023-09-30T13:51:17;22.90;99.90
48328;DHT22;34136;51.022;7.082;2023-09-30T13:54:03;22.80;99.90
48328;DHT22;34136;51.022;7.082;2023-09-30T13:56:49;22.80;99.90
48328;DHT22;34136;51.022;7.082;2023-09-30T13:59:36;22.80;99.90
48328;DHT22;34136;51.022;7.082;2023-09-30T14:02:22;22.70;99.90
48328;DHT22;34136;51.022;7.082;2023-09-30T14:05:09;22.60;99.90
48328;DHT22;34136;51.022;7.082;2023-09-30T14:07:55;22.50;99.90
48328;DHT22;34136;51.022;7.082;2023-09-30T14:10:42;22.30;99.90
48328;DHT22;34136;51.022;7.082;2023-09-30T14:13:28;22.30;99.90
48328;DHT22;34136;51.022;7.082;2023-09-30T14:16:14;22.10;99.90
48328;DHT22;34136;51.022;7.082;2023-09-30T14:19:01;21.90;99.90
48328;DHT22;34136;51.022;7.082;2023-09-30T14:21:47;21.90;99.90
48328;DHT22;34136;51.022;7.082;2023-09-30T14:24:34;21.80;99.90
48328;DHT22;34136;51.022;7.082;2023-09-30T14:27:20;22.10;99.90
48328;DHT22;34136;51.022;7.082;2023-09-30T14:30:07;22.20;99.90
48328;DHT22;34136;51.022;7.082;2023-09-30T14:32:53;22.20;99.90
48328;DHT22;34136;51.022;7.082;2023-09-30T14:35:39;22.00;99.90
48328;DHT22;34136;51.022;7.082;2023-09-30T14:38:26;21.80;99.90
48328;DHT22;34136;51.022;7.082;2023-09-30T14:41:12;21.90;99.90
48328;DHT22;34136;51.022;7.082;2023-09-30T14:43:58;21.90;99.90
48328;DHT22;34136;51.022;7.082;2023-09-30T14:46:44;21.90;99.90
48328;DHT22;34136;51.022;7.082;2023-09-30T14:49:31;22.00;99.90
48328;DHT22;34136;51.022;7.082;2023-09-30T14:52:17;22.00;99.90
48328;DHT22;34136;51.022;7.082;2023-09-30T14:55:04;21.80;99.90
48328;DHT22;34136;51.022;7.082;2023-09-30T14:57:50;21.80;99.90
48328;DHT22;34136;51.022;7.082;2023-09-30T15:00:37;21.90;99.90
48328;DHT22;34136;51.022;7.082;2023-09-30T15:03:23;21.70;99.90
48328;DHT22;34136;51.022;7.082;2023-09-30T15:06:10;21.50;99.90
48328;DHT22;34136;51.022;7.082;2023-09-30T15:08:56;21.60;99.90
48328;DHT22;34136;51.022;7.082;2023-09-30T15:11:42;21.80;99.90
48328;DHT22;34136;51.022;7.082;2023-09-30T15:14:28;22.00;99.90
48328;DHT22;34136;51.022;7.082;2023-09-30T15:17:14;21.90;99.90
48328;DHT22;34136;51.022;7.082;2023-09-30T15:20:00;21.90;99.90
48328;DHT22;34136;51.022;7.082;2023-09-30T15:22:46;21.80;99.90
48328;DHT22;34136;51.022;7.082;2023-09-30T15:25:33;21.60;99.90
48328;DHT22;34136;51.022;7.082;2023-09-30T15:28:18;21.70;99.90
48328;DHT22;34136;51.022;7.082;2023-09-30T15:31:05;21.80;99.90
48328;DHT22;34136;51.022;7.082;2023-09-30T15:33:51;21.70;99.90
48328;DHT22;34136;51.022;7.082;2023-09-30T15:36:37;21.60;99.90
48328;DHT22;34136;51.022;7.082;2023-09-30T15:39:23;21.60;99.90
48328;DHT22;34136;51.022;7.082;2023-09-30T15:42:10;21.60;99.90
48328;DHT22;34136;51.022;7.082;2023-09-30T15:44:56;21.50;99.90
48328;DHT22;34136;51.022;7.082;2023-09-30T15:47:42;21.50;99.90
48328;DHT22;34136;51.022;7.082;2023-09-30T15:50:29;21.40;99.90
48328;DHT22;34136;51.022;7.082;2023-09-30T15:53:15;21.40;99.90
48328;DHT22;34136;51.022;7.082;2023-09-30T15:56:02;21.20;99.90
48328;DHT22;34136;51.022;7.082;2023-09-30T15:58:49;21.20;99.90
48328;DHT22;34136;51.022;7.082;2023-09-30T16:01:35;21.20;99.90
48328;DHT22;34136;51.022;7.082;2023-09-30T16:04:21;21.10;99.90
48328;DHT22;34136;51.022;7.082;2023-09-30T16:07:08;21.00;99.90
48328;DHT22;34136;51.022;7.082;2023-09-30T16:09:54;21.10;99.90
48328;DHT22;34136;51.022;7.082;2023-09-30T16:12:40;20.90;99.90
48328;DHT22;34136;51.022;7.082;2023-09-30T16:15:26;20.90;99.90
48328;DHT22;34136;51.022;7.082;2023-09-30T16:18:13;20.80;99.90
48328;DHT22;34136;51.022;7.082;2023-09-30T16:20:59;20.70;99.90
48328;DHT22;34136;51.022;7.082;2023-09-30T16:23:45;20.70;99.90
48328;DHT22;34136;51.022;7.082;2023-09-30T16:26:32;20.70;99.90
48328;DHT22;34136;51.022;7.082;2023-09-30T16:29:18;20.70;99.90
48328;DHT22;34136;51.022;7.082;2023-09-30T16:32:05;20.40;99.90
48328;DHT22;34136;51.022;7.082;2023-09-30T16:34:51;20.20;99.90
48328;DHT22;34136;51.022;7.082;2023-09-30T16:37:38;20.10;99.90
48328;DHT22;34136;51.022;7.082;2023-09-30T16:40:24;19.80;99.90
48328;DHT22;34136;51.022;7.082;2023-09-30T16:43:10;19.80;99.90
48328;DHT22;34136;51.022;7.082;2023-09-30T16:46:00;19.70;99.90
48328;DHT22;34136;51.022;7.082;2023-09-30T16:48:47;19.50;99.90
48328;DHT22;34136;51.022;7.082;2023-09-30T16:51:33;19.50;99.90
48328;DHT22;34136;51.022;7.082;2023-09-30T16:54:19;19.60;99.90
48328;DHT22;34136;51.022;7.082;2023-09-30T16:57:05;19.70;99.90
48328;DHT22;34136;51.022;7.082;2023-09-30T16:59:51;19.60;99.90
48328;DHT22;34136;51.022;7.082;2023-09-30T17:02:37;19.50;99.90
48328;DHT22;34136;51.022;7.082;2023-09-30T17:05:24;19.50;99.90
48328;DHT22;34136;51.022;7.082;2023-09-30T17:08:10;19.40;99.90
48328;DHT22;34136;51.022;7.082;2023-09-30T17:10:56;19.40;99.90
48328;DHT22;34136;51.022;7.082;2023-09-30T17:13:42;19.20;99.90
48328;DHT22;34136;51.022;7.082;2023-09-30T17:16:29;19.10;99.90
48328;DHT22;34136;51.022;7.082;2023-09-30T17:19:15;18.80;99.90
48328;DHT22;34136;51.022;7.082;2023-09-30T17:22:01;18.50;99.90
48328;DHT22;34136;51.022;7.082;2023-09-30T17:24:47;18.50;99.90
48328;DHT22;34136;51.022;7.082;2023-09-30T17:27:34;18.40;99.90
48328;DHT22;34136;51.022;7.082;2023-09-30T17:30:20;18.30;99.90
48328;DHT22;34136;51.022;7.082;2023-09-30T17:33:06;18.10;99.90
48328;DHT22;34136;51.022;7.082;2023-09-30T17:35:58;18.10;99.90
48328;DHT22;34136;51.022;7.082;2023-09-30T17:38:45;18.00;99.90
48328;DHT22;34136;51.022;7.082;2023-09-30T17:41:32;17.80;99.90
48328;DHT22;34136;51.022;7.082;2023-09-30T17:44:18;17.70;99.90
48328;DHT22;34136;51.022;7.082;2023-09-30T17:47:04;17.50;99.90
48328;DHT22;34136;51.022;7.082;2023-09-30T17:49:50;17.30;99.90
48328;DHT22;34136;51.022;7.082;2023-09-30T17:52:37;17.30;99.90
48328;DHT22;34136;51.022;7.082;2023-09-30T17:55:24;17.40;99.90